This is the latest recevied weather packets stored in our database for station/object TG9ADI-20. If no packets are shown the sender has not sent any weather packets the latest 10 day(s).
| Time | Temp. | Humidity | Pressure | Rain* | Wind** | Luminosity | Snow |
|---|---|---|---|---|---|---|---|
| 1777754154 | 28.33° C | 70% | 1009 hPa | 0 mm | - | - | - |
| 1777753554 | 28.33° C | 70% | 1010 hPa | 0 mm | - | - | - |
| 1777752953 | 28.33° C | 70% | 1010 hPa | 0 mm | - | - | - |
| 1777752352 | 28.33° C | 70% | 1010 hPa | 0 mm | - | - | - |
| 1777751752 | 28.33° C | 68% | 1009 hPa | 0 mm | - | - | - |
| 1777751151 | 28.89° C | 68% | 1010 hPa | 0 mm | - | - | - |
| 1777750550 | 28.89° C | 68% | 1010 hPa | 0 mm | - | - | - |
| 1777749950 | 28.33° C | 60% | 1011 hPa | 0 mm | - | - | - |
| 1777749349 | 28.89° C | 42% | 1011 hPa | 0 mm | - | - | - |
| 1777748749 | 27.22° C | 68% | 1011 hPa | 0 mm | - | - | - |
| 1777748148 | 27.78° C | 68% | 1011 hPa | 0 mm | - | - | - |
| 1777747547 | 27.78° C | 68% | 1011 hPa | 0 mm | - | - | - |
| 1777746947 | 28.33° C | 68% | 1011 hPa | 0 mm | - | - | - |
| 1777746346 | 27.78° C | 68% | 1012 hPa | 0 mm | - | - | - |
| 1777745745 | 27.78° C | 42% | 1012 hPa | 0 mm | - | - | - |
| 1777745145 | 25.56° C | 47% | 1012 hPa | 0 mm | - | - | - |
| 1777744544 | 25.56° C | 47% | 1012 hPa | 0 mm | - | - | - |
| 1777743944 | 25.56° C | 47% | 1012 hPa | 0 mm | - | - | - |
| 1777743343 | 25.56° C | 47% | 1012 hPa | 0 mm | - | - | - |
| 1777742742 | 25.56° C | 47% | 1013 hPa | 0 mm | - | - | - |
| 1777742142 | 25.56° C | 47% | 1013 hPa | 0 mm | - | - | - |
| 1777741541 | 25.56° C | 47% | 1013 hPa | 0 mm | - | - | - |
| 1777740940 | 24.44° C | 50% | 1013 hPa | 0 mm | - | - | - |
| 1777740338 | 24.44° C | 50% | 1013 hPa | 0 mm | - | - | - |
| 1777739737 | 24.44° C | 50% | 1013 hPa | 0 mm | - | - | - |
* Rain latest hour (hover to see other rain measurements)
** Current wind speed in m/s (hover to see current wind gust speed)